sensor_id;sensor_type;location;lat;lon;timestamp;temperature;humidity
14014;DHT22;49110;52.584;13.408;2023-05-10T00:00:13;14.30;63.80
14014;DHT22;49110;52.584;13.408;2023-05-10T00:01:13;14.20;63.90
14014;DHT22;49110;52.584;13.408;2023-05-10T00:02:14;14.20;64.20
14014;DHT22;49110;52.584;13.408;2023-05-10T00:03:14;14.20;64.20
14014;DHT22;49110;52.584;13.408;2023-05-10T00:04:14;14.10;64.20
14014;DHT22;49110;52.584;13.408;2023-05-10T00:05:15;14.20;64.40
14014;DHT22;49110;52.584;13.408;2023-05-10T00:06:16;14.10;64.30
14014;DHT22;49110;52.584;13.408;2023-05-10T00:07:16;14.10;64.30
14014;DHT22;49110;52.584;13.408;2023-05-10T00:08:20;14.10;64.60
14014;DHT22;49110;52.584;13.408;2023-05-10T00:09:20;14.10;64.50
14014;DHT22;49110;52.584;13.408;2023-05-10T00:10:21;14.20;64.80
14014;DHT22;49110;52.584;13.408;2023-05-10T00:11:21;14.20;64.60
14014;DHT22;49110;52.584;13.408;2023-05-10T00:12:22;14.20;64.50
14014;DHT22;49110;52.584;13.408;2023-05-10T00:13:22;14.10;64.50
14014;DHT22;49110;52.584;13.408;2023-05-10T00:14:23;14.10;64.80
14014;DHT22;49110;52.584;13.408;2023-05-10T00:15:23;14.10;64.80
14014;DHT22;49110;52.584;13.408;2023-05-10T00:16:23;14.10;64.80
14014;DHT22;49110;52.584;13.408;2023-05-10T00:17:24;14.10;64.80
14014;DHT22;49110;52.584;13.408;2023-05-10T00:18:24;14.10;64.80
14014;DHT22;49110;52.584;13.408;2023-05-10T00:19:25;14.10;64.80
14014;DHT22;49110;52.584;13.408;2023-05-10T00:20:25;14.00;64.70
14014;DHT22;49110;52.584;13.408;2023-05-10T00:21:26;14.00;64.80
14014;DHT22;49110;52.584;13.408;2023-05-10T00:22:28;13.90;64.80
14014;DHT22;49110;52.584;13.408;2023-05-10T00:23:28;14.00;65.10
14014;DHT22;49110;52.584;13.408;2023-05-10T00:24:29;14.00;65.30
14014;DHT22;49110;52.584;13.408;2023-05-10T00:25:30;13.90;65.20
14014;DHT22;49110;52.584;13.408;2023-05-10T00:26:30;13.80;65.20
14014;DHT22;49110;52.584;13.408;2023-05-10T00:27:30;13.90;65.40
14014;DHT22;49110;52.584;13.408;2023-05-10T00:28:31;13.90;65.60
14014;DHT22;49110;52.584;13.408;2023-05-10T00:29:31;13.90;65.80
14014;DHT22;49110;52.584;13.408;2023-05-10T00:30:33;13.90;65.70
14014;DHT22;49110;52.584;13.408;2023-05-10T00:31:33;13.80;65.70
14014;DHT22;49110;52.584;13.408;2023-05-10T00:32:34;13.80;65.60
14014;DHT22;49110;52.584;13.408;2023-05-10T00:33:34;13.80;65.70
14014;DHT22;49110;52.584;13.408;2023-05-10T00:34:35;13.80;65.80
14014;DHT22;49110;52.584;13.408;2023-05-10T00:35:35;13.80;65.70
14014;DHT22;49110;52.584;13.408;2023-05-10T00:36:36;13.80;65.80
14014;DHT22;49110;52.584;13.408;2023-05-10T00:37:36;13.90;65.90
14014;DHT22;49110;52.584;13.408;2023-05-10T00:38:37;13.80;65.80
14014;DHT22;49110;52.584;13.408;2023-05-10T00:39:38;13.80;65.90
14014;DHT22;49110;52.584;13.408;2023-05-10T00:40:38;13.80;65.90
14014;DHT22;49110;52.584;13.408;2023-05-10T00:41:39;13.80;66.10
14014;DHT22;49110;52.584;13.408;2023-05-10T00:42:39;13.80;66.10
14014;DHT22;49110;52.584;13.408;2023-05-10T00:43:40;13.70;66.30
14014;DHT22;49110;52.584;13.408;2023-05-10T00:44:40;13.70;66.20
14014;DHT22;49110;52.584;13.408;2023-05-10T00:45:41;13.70;66.30
14014;DHT22;49110;52.584;13.408;2023-05-10T00:46:42;13.70;66.40
14014;DHT22;49110;52.584;13.408;2023-05-10T00:47:42;13.70;66.40
14014;DHT22;49110;52.584;13.408;2023-05-10T00:48:44;13.70;66.40
14014;DHT22;49110;52.584;13.408;2023-05-10T00:49:45;13.70;66.40
14014;DHT22;49110;52.584;13.408;2023-05-10T00:50:46;13.70;66.70
14014;DHT22;49110;52.584;13.408;2023-05-10T00:51:47;13.60;66.60
14014;DHT22;49110;52.584;13.408;2023-05-10T00:52:47;13.60;66.70
14014;DHT22;49110;52.584;13.408;2023-05-10T00:53:48;13.60;66.80
14014;DHT22;49110;52.584;13.408;2023-05-10T00:54:52;13.60;66.90
14014;DHT22;49110;52.584;13.408;2023-05-10T00:55:52;13.60;66.90
14014;DHT22;49110;52.584;13.408;2023-05-10T00:56:53;13.60;67.00
14014;DHT22;49110;52.584;13.408;2023-05-10T00:57:53;13.60;67.20
14014;DHT22;49110;52.584;13.408;2023-05-10T00:58:54;13.50;67.00
14014;DHT22;49110;52.584;13.408;2023-05-10T00:59:55;13.60;67.40
14014;DHT22;49110;52.584;13.408;2023-05-10T01:00:55;13.50;67.20
14014;DHT22;49110;52.584;13.408;2023-05-10T01:01:57;13.50;67.20
14014;DHT22;49110;52.584;13.408;2023-05-10T01:02:58;13.60;67.60
14014;DHT22;49110;52.584;13.408;2023-05-10T01:03:59;13.50;67.40
14014;DHT22;49110;52.584;13.408;2023-05-10T01:05:00;13.60;67.40
14014;DHT22;49110;52.584;13.408;2023-05-10T01:06:02;13.60;67.60
14014;DHT22;49110;52.584;13.408;2023-05-10T01:07:03;13.50;67.50
14014;DHT22;49110;52.584;13.408;2023-05-10T01:08:04;13.50;68.40
14014;DHT22;49110;52.584;13.408;2023-05-10T01:09:04;13.50;67.70
14014;DHT22;49110;52.584;13.408;2023-05-10T01:10:07;13.50;67.70
14014;DHT22;49110;52.584;13.408;2023-05-10T01:11:08;13.50;67.90
14014;DHT22;49110;52.584;13.408;2023-05-10T01:12:09;13.50;67.80
14014;DHT22;49110;52.584;13.408;2023-05-10T01:13:10;13.50;67.80
14014;DHT22;49110;52.584;13.408;2023-05-10T01:14:11;13.50;67.90
14014;DHT22;49110;52.584;13.408;2023-05-10T01:15:12;13.50;67.90
14014;DHT22;49110;52.584;13.408;2023-05-10T01:16:13;13.40;67.90
14014;DHT22;49110;52.584;13.408;2023-05-10T01:17:14;13.50;68.00
14014;DHT22;49110;52.584;13.408;2023-05-10T01:18:17;13.50;68.10
14014;DHT22;49110;52.584;13.408;2023-05-10T01:19:26;13.60;68.00
14014;DHT22;49110;52.584;13.408;2023-05-10T01:20:32;13.50;67.80
14014;DHT22;49110;52.584;13.408;2023-05-10T01:21:45;13.50;67.90
14014;DHT22;49110;52.584;13.408;2023-05-10T01:23:20;13.50;68.10
14014;DHT22;49110;52.584;13.408;2023-05-10T01:27:25;13.50;68.40
14014;DHT22;49110;52.584;13.408;2023-05-10T01:31:59;13.30;68.60
14014;DHT22;49110;52.584;13.408;2023-05-10T01:33:32;13.30;68.90
14014;DHT22;49110;52.584;13.408;2023-05-10T01:37:21;13.30;69.00
14014;DHT22;49110;52.584;13.408;2023-05-10T01:40:37;13.20;69.10
14014;DHT22;49110;52.584;13.408;2023-05-10T01:41:51;13.10;69.20
14014;DHT22;49110;52.584;13.408;2023-05-10T01:42:59;13.10;69.20
14014;DHT22;49110;52.584;13.408;2023-05-10T01:46:36;13.20;69.50
14014;DHT22;49110;52.584;13.408;2023-05-10T01:47:40;13.20;69.40
14014;DHT22;49110;52.584;13.408;2023-05-10T01:48:51;13.20;69.30
14014;DHT22;49110;52.584;13.408;2023-05-10T01:49:54;13.20;69.20
14014;DHT22;49110;52.584;13.408;2023-05-10T01:50:56;13.20;69.30
14014;DHT22;49110;52.584;13.408;2023-05-10T01:52:06;13.20;69.40
14014;DHT22;49110;52.584;13.408;2023-05-10T01:53:09;13.20;69.40
14014;DHT22;49110;52.584;13.408;2023-05-10T01:54:12;13.20;69.60
14014;DHT22;49110;52.584;13.408;2023-05-10T01:55:16;13.10;69.50
14014;DHT22;49110;52.584;13.408;2023-05-10T01:56:19;13.20;69.60
14014;DHT22;49110;52.584;13.408;2023-05-10T01:57:27;13.10;69.70
14014;DHT22;49110;52.584;13.408;2023-05-10T01:58:32;13.20;69.70
14014;DHT22;49110;52.584;13.408;2023-05-10T01:59:35;13.10;69.50
14014;DHT22;49110;52.584;13.408;2023-05-10T02:00:40;13.10;69.60
14014;DHT22;49110;52.584;13.408;2023-05-10T02:01:43;13.10;69.60
14014;DHT22;49110;52.584;13.408;2023-05-10T02:02:47;13.10;69.80
14014;DHT22;49110;52.584;13.408;2023-05-10T02:03:50;13.20;69.90
14014;DHT22;49110;52.584;13.408;2023-05-10T02:04:53;13.20;69.70
14014;DHT22;49110;52.584;13.408;2023-05-10T02:05:56;13.20;69.70
14014;DHT22;49110;52.584;13.408;2023-05-10T02:06:57;13.20;69.80
14014;DHT22;49110;52.584;13.408;2023-05-10T02:07:58;13.20;69.70
14014;DHT22;49110;52.584;13.408;2023-05-10T02:09:01;13.10;69.50
14014;DHT22;49110;52.584;13.408;2023-05-10T02:10:05;13.10;69.60
14014;DHT22;49110;52.584;13.408;2023-05-10T02:11:07;13.20;69.90
14014;DHT22;49110;52.584;13.408;2023-05-10T02:12:08;13.20;69.60
14014;DHT22;49110;52.584;13.408;2023-05-10T02:13:10;13.20;69.60
14014;DHT22;49110;52.584;13.408;2023-05-10T02:14:12;13.10;69.60
14014;DHT22;49110;52.584;13.408;2023-05-10T02:15:17;13.20;69.80
14014;DHT22;49110;52.584;13.408;2023-05-10T02:16:21;13.20;69.80
14014;DHT22;49110;52.584;13.408;2023-05-10T02:17:25;13.10;69.70
14014;DHT22;49110;52.584;13.408;2023-05-10T02:18:27;13.10;70.00
14014;DHT22;49110;52.584;13.408;2023-05-10T02:19:28;13.10;70.10
14014;DHT22;49110;52.584;13.408;2023-05-10T02:20:31;13.10;70.20
14014;DHT22;49110;52.584;13.408;2023-05-10T02:21:33;13.20;70.20
14014;DHT22;49110;52.584;13.408;2023-05-10T02:22:35;13.20;69.90
14014;DHT22;49110;52.584;13.408;2023-05-10T02:23:37;13.10;69.70
14014;DHT22;49110;52.584;13.408;2023-05-10T02:24:38;13.10;69.80
14014;DHT22;49110;52.584;13.408;2023-05-10T02:25:40;13.00;69.70
14014;DHT22;49110;52.584;13.408;2023-05-10T02:26:42;13.00;69.90
14014;DHT22;49110;52.584;13.408;2023-05-10T02:27:44;13.00;69.90
14014;DHT22;49110;52.584;13.408;2023-05-10T02:28:46;13.00;70.00
14014;DHT22;49110;52.584;13.408;2023-05-10T02:29:48;13.10;70.30
14014;DHT22;49110;52.584;13.408;2023-05-10T02:30:51;13.00;70.00
14014;DHT22;49110;52.584;13.408;2023-05-10T02:31:52;13.00;70.00
14014;DHT22;49110;52.584;13.408;2023-05-10T02:32:54;12.90;69.90
14014;DHT22;49110;52.584;13.408;2023-05-10T02:33:56;13.00;70.10
14014;DHT22;49110;52.584;13.408;2023-05-10T02:34:58;13.00;70.20
14014;DHT22;49110;52.584;13.408;2023-05-10T02:36:01;13.00;70.00
14014;DHT22;49110;52.584;13.408;2023-05-10T02:37:02;13.00;70.10
14014;DHT22;49110;52.584;13.408;2023-05-10T02:38:04;13.00;70.00
14014;DHT22;49110;52.584;13.408;2023-05-10T02:39:06;13.10;70.20
14014;DHT22;49110;52.584;13.408;2023-05-10T02:40:10;13.10;70.10
14014;DHT22;49110;52.584;13.408;2023-05-10T02:41:12;13.10;69.90
14014;DHT22;49110;52.584;13.408;2023-05-10T02:42:24;13.10;70.10
14014;DHT22;49110;52.584;13.408;2023-05-10T02:43:25;13.10;70.00
14014;DHT22;49110;52.584;13.408;2023-05-10T02:44:27;12.90;69.70
14014;DHT22;49110;52.584;13.408;2023-05-10T02:45:32;12.90;69.90
14014;DHT22;49110;52.584;13.408;2023-05-10T02:46:33;12.90;70.30
14014;DHT22;49110;52.584;13.408;2023-05-10T02:47:34;12.90;70.30
14014;DHT22;49110;52.584;13.408;2023-05-10T02:48:35;12.90;70.40
14014;DHT22;49110;52.584;13.408;2023-05-10T02:49:36;12.80;70.30
14014;DHT22;49110;52.584;13.408;2023-05-10T02:50:37;12.80;70.40
14014;DHT22;49110;52.584;13.408;2023-05-10T02:51:43;12.80;70.50
14014;DHT22;49110;52.584;13.408;2023-05-10T02:52:51;12.80;70.70
14014;DHT22;49110;52.584;13.408;2023-05-10T02:53:56;12.90;70.90
14014;DHT22;49110;52.584;13.408;2023-05-10T02:55:01;12.90;70.50
14014;DHT22;49110;52.584;13.408;2023-05-10T02:56:05;12.90;70.30
14014;DHT22;49110;52.584;13.408;2023-05-10T02:57:09;12.90;70.30
14014;DHT22;49110;52.584;13.408;2023-05-10T02:58:11;12.90;70.30
14014;DHT22;49110;52.584;13.408;2023-05-10T02:59:11;12.90;70.30
14014;DHT22;49110;52.584;13.408;2023-05-10T03:00:12;12.90;70.30
14014;DHT22;49110;52.584;13.408;2023-05-10T03:01:13;12.80;70.30
14014;DHT22;49110;52.584;13.408;2023-05-10T03:02:14;12.80;70.50
14014;DHT22;49110;52.584;13.408;2023-05-10T03:03:14;12.80;70.50
14014;DHT22;49110;52.584;13.408;2023-05-10T03:04:15;12.80;70.50
14014;DHT22;49110;52.584;13.408;2023-05-10T03:05:15;12.70;70.30
14014;DHT22;49110;52.584;13.408;2023-05-10T03:06:16;12.70;70.40
14014;DHT22;49110;52.584;13.408;2023-05-10T03:07:16;12.70;70.60
14014;DHT22;49110;52.584;13.408;2023-05-10T03:08:19;12.60;70.60
14014;DHT22;49110;52.584;13.408;2023-05-10T03:09:20;12.60;70.70
14014;DHT22;49110;52.584;13.408;2023-05-10T03:10:26;12.60;70.90
14014;DHT22;49110;52.584;13.408;2023-05-10T03:12:47;12.70;71.10
14014;DHT22;49110;52.584;13.408;2023-05-10T03:14:23;12.70;71.30
14014;DHT22;49110;52.584;13.408;2023-05-10T03:15:48;12.80;71.10
14014;DHT22;49110;52.584;13.408;2023-05-10T03:17:22;12.70;70.70
14014;DHT22;49110;52.584;13.408;2023-05-10T03:18:33;12.70;70.60
14014;DHT22;49110;52.584;13.408;2023-05-10T03:19:49;12.80;70.80
14014;DHT22;49110;52.584;13.408;2023-05-10T03:20:57;12.80;70.60
14014;DHT22;49110;52.584;13.408;2023-05-10T03:22:02;12.80;70.20
14014;DHT22;49110;52.584;13.408;2023-05-10T03:24:34;12.80;70.40
14014;DHT22;49110;52.584;13.408;2023-05-10T03:25:35;12.80;70.50
14014;DHT22;49110;52.584;13.408;2023-05-10T03:26:37;12.70;70.30
14014;DHT22;49110;52.584;13.408;2023-05-10T03:27:40;12.70;70.50
14014;DHT22;49110;52.584;13.408;2023-05-10T03:28:41;12.70;70.60
14014;DHT22;49110;52.584;13.408;2023-05-10T03:29:43;12.70;70.40
14014;DHT22;49110;52.584;13.408;2023-05-10T03:30:44;12.70;70.40
14014;DHT22;49110;52.584;13.408;2023-05-10T03:31:45;12.70;70.50
14014;DHT22;49110;52.584;13.408;2023-05-10T03:32:46;12.70;70.50
14014;DHT22;49110;52.584;13.408;2023-05-10T03:33:47;12.70;70.60
14014;DHT22;49110;52.584;13.408;2023-05-10T03:34:48;12.70;70.60
14014;DHT22;49110;52.584;13.408;2023-05-10T03:35:49;12.60;70.60
14014;DHT22;49110;52.584;13.408;2023-05-10T03:36:49;12.60;71.40
14014;DHT22;49110;52.584;13.408;2023-05-10T03:37:50;12.60;70.70
14014;DHT22;49110;52.584;13.408;2023-05-10T03:38:50;12.70;70.90
14014;DHT22;49110;52.584;13.408;2023-05-10T03:39:50;12.70;70.70
14014;DHT22;49110;52.584;13.408;2023-05-10T03:40:51;12.70;70.50
14014;DHT22;49110;52.584;13.408;2023-05-10T03:41:51;12.70;70.60
14014;DHT22;49110;52.584;13.408;2023-05-10T03:42:52;12.60;70.80
14014;DHT22;49110;52.584;13.408;2023-05-10T03:43:53;12.70;71.00
14014;DHT22;49110;52.584;13.408;2023-05-10T03:44:53;12.60;70.80
14014;DHT22;49110;52.584;13.408;2023-05-10T03:45:54;12.70;70.90
14014;DHT22;49110;52.584;13.408;2023-05-10T03:46:54;12.70;70.90
14014;DHT22;49110;52.584;13.408;2023-05-10T03:47:57;12.80;71.00
14014;DHT22;49110;52.584;13.408;2023-05-10T03:48:58;12.80;70.70
14014;DHT22;49110;52.584;13.408;2023-05-10T03:49:59;12.80;70.50
14014;DHT22;49110;52.584;13.408;2023-05-10T03:50:59;12.80;70.40
14014;DHT22;49110;52.584;13.408;2023-05-10T03:52:00;12.80;70.20
14014;DHT22;49110;52.584;13.408;2023-05-10T03:53:01;12.80;70.20
14014;DHT22;49110;52.584;13.408;2023-05-10T03:54:02;12.80;70.40
14014;DHT22;49110;52.584;13.408;2023-05-10T03:55:03;12.70;70.40
14014;DHT22;49110;52.584;13.408;2023-05-10T03:56:04;12.60;70.50
14014;DHT22;49110;52.584;13.408;2023-05-10T03:57:04;12.60;70.50
14014;DHT22;49110;52.584;13.408;2023-05-10T03:58:05;12.70;70.70
14014;DHT22;49110;52.584;13.408;2023-05-10T03:59:05;12.70;70.60
14014;DHT22;49110;52.584;13.408;2023-05-10T04:00:08;12.70;70.60
14014;DHT22;49110;52.584;13.408;2023-05-10T04:01:09;12.70;70.70
14014;DHT22;49110;52.584;13.408;2023-05-10T04:02:09;12.60;70.50
14014;DHT22;49110;52.584;13.408;2023-05-10T04:03:10;12.60;70.70
14014;DHT22;49110;52.584;13.408;2023-05-10T04:04:11;12.50;70.80
14014;DHT22;49110;52.584;13.408;2023-05-10T04:05:11;12.60;71.10
14014;DHT22;49110;52.584;13.408;2023-05-10T04:06:12;12.60;71.20
14014;DHT22;49110;52.584;13.408;2023-05-10T04:07:13;12.50;71.10
14014;DHT22;49110;52.584;13.408;2023-05-10T04:08:13;12.60;71.30
14014;DHT22;49110;52.584;13.408;2023-05-10T04:09:16;12.70;71.30
14014;DHT22;49110;52.584;13.408;2023-05-10T04:10:17;12.70;71.10
14014;DHT22;49110;52.584;13.408;2023-05-10T04:11:18;12.70;70.70
14014;DHT22;49110;52.584;13.408;2023-05-10T04:12:18;12.70;70.80
14014;DHT22;49110;52.584;13.408;2023-05-10T04:13:18;12.70;70.90
14014;DHT22;49110;52.584;13.408;2023-05-10T04:14:19;12.70;71.00
14014;DHT22;49110;52.584;13.408;2023-05-10T04:15:20;12.70;70.70
14014;DHT22;49110;52.584;13.408;2023-05-10T04:16:20;12.70;70.90
14014;DHT22;49110;52.584;13.408;2023-05-10T04:17:21;12.70;71.00
14014;DHT22;49110;52.584;13.408;2023-05-10T04:18:21;12.80;70.90
14014;DHT22;49110;52.584;13.408;2023-05-10T04:19:22;12.80;70.70
14014;DHT22;49110;52.584;13.408;2023-05-10T04:20:22;12.70;70.70
14014;DHT22;49110;52.584;13.408;2023-05-10T04:21:23;12.70;70.60
14014;DHT22;49110;52.584;13.408;2023-05-10T04:22:23;12.70;70.70
14014;DHT22;49110;52.584;13.408;2023-05-10T04:23:24;12.70;70.90
14014;DHT22;49110;52.584;13.408;2023-05-10T04:24:24;12.70;71.00
14014;DHT22;49110;52.584;13.408;2023-05-10T04:25:25;12.70;71.00
14014;DHT22;49110;52.584;13.408;2023-05-10T04:26:25;12.80;71.20
14014;DHT22;49110;52.584;13.408;2023-05-10T04:27:26;12.80;70.90
14014;DHT22;49110;52.584;13.408;2023-05-10T04:28:27;12.80;71.00
14014;DHT22;49110;52.584;13.408;2023-05-10T04:29:27;12.80;70.90
14014;DHT22;49110;52.584;13.408;2023-05-10T04:30:28;12.80;70.50
14014;DHT22;49110;52.584;13.408;2023-05-10T04:31:29;12.80;70.70
14014;DHT22;49110;52.584;13.408;2023-05-10T04:32:29;12.90;70.80
14014;DHT22;49110;52.584;13.408;2023-05-10T04:33:30;12.90;70.80
14014;DHT22;49110;52.584;13.408;2023-05-10T04:34:31;13.00;70.90
14014;DHT22;49110;52.584;13.408;2023-05-10T04:35:34;13.00;70.90
14014;DHT22;49110;52.584;13.408;2023-05-10T04:36:38;13.00;70.40
14014;DHT22;49110;52.584;13.408;2023-05-10T04:37:38;13.00;70.40
14014;DHT22;49110;52.584;13.408;2023-05-10T04:38:39;13.00;70.40
14014;DHT22;49110;52.584;13.408;2023-05-10T04:39:39;13.00;70.40
14014;DHT22;49110;52.584;13.408;2023-05-10T04:40:40;13.00;70.30
14014;DHT22;49110;52.584;13.408;2023-05-10T04:41:40;13.00;70.40
14014;DHT22;49110;52.584;13.408;2023-05-10T04:42:41;13.00;70.50
14014;DHT22;49110;52.584;13.408;2023-05-10T04:43:41;13.00;70.70
14014;DHT22;49110;52.584;13.408;2023-05-10T04:44:42;13.00;70.40
14014;DHT22;49110;52.584;13.408;2023-05-10T04:45:42;13.10;70.60
14014;DHT22;49110;52.584;13.408;2023-05-10T04:46:43;13.10;70.60
14014;DHT22;49110;52.584;13.408;2023-05-10T04:47:43;13.20;70.60
14014;DHT22;49110;52.584;13.408;2023-05-10T04:48:44;13.20;70.60
14014;DHT22;49110;52.584;13.408;2023-05-10T04:49:44;13.20;70.20
14014;DHT22;49110;52.584;13.408;2023-05-10T04:50:45;13.20;70.20
14014;DHT22;49110;52.584;13.408;2023-05-10T04:51:46;13.30;70.40
14014;DHT22;49110;52.584;13.408;2023-05-10T04:52:46;13.30;70.30
14014;DHT22;49110;52.584;13.408;2023-05-10T04:53:47;13.20;70.30
14014;DHT22;49110;52.584;13.408;2023-05-10T04:54:47;13.20;70.30
14014;DHT22;49110;52.584;13.408;2023-05-10T04:55:48;13.30;70.70
14014;DHT22;49110;52.584;13.408;2023-05-10T04:56:49;13.30;70.70
14014;DHT22;49110;52.584;13.408;2023-05-10T04:57:49;13.30;70.90
14014;DHT22;49110;52.584;13.408;2023-05-10T04:58:50;13.30;70.70
14014;DHT22;49110;52.584;13.408;2023-05-10T04:59:50;13.40;70.60
14014;DHT22;49110;52.584;13.408;2023-05-10T05:00:51;13.40;70.20
14014;DHT22;49110;52.584;13.408;2023-05-10T05:01:51;13.40;70.30
14014;DHT22;49110;52.584;13.408;2023-05-10T05:02:52;13.50;70.40
14014;DHT22;49110;52.584;13.408;2023-05-10T05:03:52;13.50;70.20
14014;DHT22;49110;52.584;13.408;2023-05-10T05:04:53;13.50;69.70
14014;DHT22;49110;52.584;13.408;2023-05-10T05:05:53;13.50;70.10
14014;DHT22;49110;52.584;13.408;2023-05-10T05:06:53;13.40;69.90
14014;DHT22;49110;52.584;13.408;2023-05-10T05:07:54;13.40;70.20
14014;DHT22;49110;52.584;13.408;2023-05-10T05:08:54;13.40;70.30
14014;DHT22;49110;52.584;13.408;2023-05-10T05:09:55;13.50;70.30
14014;DHT22;49110;52.584;13.408;2023-05-10T05:10:55;13.50;70.50
14014;DHT22;49110;52.584;13.408;2023-05-10T05:11:56;13.50;70.10
14014;DHT22;49110;52.584;13.408;2023-05-10T05:12:56;13.50;69.60
14014;DHT22;49110;52.584;13.408;2023-05-10T05:13:57;13.60;69.70
14014;DHT22;49110;52.584;13.408;2023-05-10T05:14:59;13.60;69.60
14014;DHT22;49110;52.584;13.408;2023-05-10T05:16:01;13.70;69.80
14014;DHT22;49110;52.584;13.408;2023-05-10T05:17:02;13.70;69.50
14014;DHT22;49110;52.584;13.408;2023-05-10T05:18:04;13.70;70.10
14014;DHT22;49110;52.584;13.408;2023-05-10T05:19:04;13.70;70.40
14014;DHT22;49110;52.584;13.408;2023-05-10T05:20:05;13.80;71.80
14014;DHT22;49110;52.584;13.408;2023-05-10T05:21:17;13.80;71.50
14014;DHT22;49110;52.584;13.408;2023-05-10T05:22:18;13.90;71.20
14014;DHT22;49110;52.584;13.408;2023-05-10T05:23:19;13.90;70.60
14014;DHT22;49110;52.584;13.408;2023-05-10T05:24:21;13.90;70.40
14014;DHT22;49110;52.584;13.408;2023-05-10T05:25:21;13.90;70.70
14014;DHT22;49110;52.584;13.408;2023-05-10T05:26:22;14.00;71.50
14014;DHT22;49110;52.584;13.408;2023-05-10T05:27:22;14.00;71.70
14014;DHT22;49110;52.584;13.408;2023-05-10T05:28:24;14.00;71.00
14014;DHT22;49110;52.584;13.408;2023-05-10T05:29:25;14.10;71.50
14014;DHT22;49110;52.584;13.408;2023-05-10T05:30:25;14.10;70.90
14014;DHT22;49110;52.584;13.408;2023-05-10T05:31:26;14.10;70.70
14014;DHT22;49110;52.584;13.408;2023-05-10T05:32:26;14.10;70.90
14014;DHT22;49110;52.584;13.408;2023-05-10T05:33:27;14.20;70.10
14014;DHT22;49110;52.584;13.408;2023-05-10T05:34:27;14.20;70.00
14014;DHT22;49110;52.584;13.408;2023-05-10T05:35:28;14.20;70.50
14014;DHT22;49110;52.584;13.408;2023-05-10T05:36:28;14.20;70.20
14014;DHT22;49110;52.584;13.408;2023-05-10T05:37:28;14.20;71.30
14014;DHT22;49110;52.584;13.408;2023-05-10T05:38:29;14.20;70.80
14014;DHT22;49110;52.584;13.408;2023-05-10T05:39:30;14.20;69.90
14014;DHT22;49110;52.584;13.408;2023-05-10T05:40:30;14.20;70.00
14014;DHT22;49110;52.584;13.408;2023-05-10T05:41:31;14.20;70.00
14014;DHT22;49110;52.584;13.408;2023-05-10T05:42:31;14.30;70.10
14014;DHT22;49110;52.584;13.408;2023-05-10T05:43:32;14.30;70.60
14014;DHT22;49110;52.584;13.408;2023-05-10T05:44:33;14.30;70.20
14014;DHT22;49110;52.584;13.408;2023-05-10T05:45:33;14.40;70.40
14014;DHT22;49110;52.584;13.408;2023-05-10T05:46:34;14.40;69.80
14014;DHT22;49110;52.584;13.408;2023-05-10T05:47:35;14.40;69.80
14014;DHT22;49110;52.584;13.408;2023-05-10T05:48:35;14.50;70.40
14014;DHT22;49110;52.584;13.408;2023-05-10T05:49:36;14.50;70.60
14014;DHT22;49110;52.584;13.408;2023-05-10T05:50:36;14.60;70.10
14014;DHT22;49110;52.584;13.408;2023-05-10T05:51:36;14.60;70.10
14014;DHT22;49110;52.584;13.408;2023-05-10T05:52:37;14.70;70.60
14014;DHT22;49110;52.584;13.408;2023-05-10T05:53:37;14.70;70.60
14014;DHT22;49110;52.584;13.408;2023-05-10T05:54:38;14.70;70.40
14014;DHT22;49110;52.584;13.408;2023-05-10T05:55:39;14.80;70.40
14014;DHT22;49110;52.584;13.408;2023-05-10T05:56:39;14.80;70.20
14014;DHT22;49110;52.584;13.408;2023-05-10T05:57:39;14.80;72.40
14014;DHT22;49110;52.584;13.408;2023-05-10T05:58:40;14.90;71.10
14014;DHT22;49110;52.584;13.408;2023-05-10T05:59:41;15.00;70.40
14014;DHT22;49110;52.584;13.408;2023-05-10T06:00:44;14.90;69.70
14014;DHT22;49110;52.584;13.408;2023-05-10T06:01:45;15.00;70.20
14014;DHT22;49110;52.584;13.408;2023-05-10T06:02:45;15.00;70.40
14014;DHT22;49110;52.584;13.408;2023-05-10T06:03:46;15.00;70.50
14014;DHT22;49110;52.584;13.408;2023-05-10T06:04:46;15.10;69.90
14014;DHT22;49110;52.584;13.408;2023-05-10T06:05:47;15.10;69.40
14014;DHT22;49110;52.584;13.408;2023-05-10T06:06:48;15.10;69.80
14014;DHT22;49110;52.584;13.408;2023-05-10T06:07:48;15.20;69.20
14014;DHT22;49110;52.584;13.408;2023-05-10T06:08:49;15.10;68.40
14014;DHT22;49110;52.584;13.408;2023-05-10T06:09:49;15.10;68.80
14014;DHT22;49110;52.584;13.408;2023-05-10T06:10:50;15.20;69.60
14014;DHT22;49110;52.584;13.408;2023-05-10T06:11:50;15.20;69.30
14014;DHT22;49110;52.584;13.408;2023-05-10T06:12:51;15.20;69.70
14014;DHT22;49110;52.584;13.408;2023-05-10T06:13:51;15.20;69.40
14014;DHT22;49110;52.584;13.408;2023-05-10T06:14:52;15.30;69.50
14014;DHT22;49110;52.584;13.408;2023-05-10T06:15:52;15.30;69.10
14014;DHT22;49110;52.584;13.408;2023-05-10T06:16:53;15.30;69.00
14014;DHT22;49110;52.584;13.408;2023-05-10T06:17:53;15.30;68.80
14014;DHT22;49110;52.584;13.408;2023-05-10T06:18:54;15.40;69.10
14014;DHT22;49110;52.584;13.408;2023-05-10T06:19:54;15.40;68.80
14014;DHT22;49110;52.584;13.408;2023-05-10T06:20:55;15.40;69.30
14014;DHT22;49110;52.584;13.408;2023-05-10T06:21:55;15.50;68.50
14014;DHT22;49110;52.584;13.408;2023-05-10T06:22:56;15.50;68.90
14014;DHT22;49110;52.584;13.408;2023-05-10T06:23:56;15.50;68.50
14014;DHT22;49110;52.584;13.408;2023-05-10T06:24:57;15.60;69.00
14014;DHT22;49110;52.584;13.408;2023-05-10T06:25:57;15.50;68.90
14014;DHT22;49110;52.584;13.408;2023-05-10T06:26:58;15.50;69.60
14014;DHT22;49110;52.584;13.408;2023-05-10T06:28:00;15.60;69.40
14014;DHT22;49110;52.584;13.408;2023-05-10T06:29:00;15.60;69.50
14014;DHT22;49110;52.584;13.408;2023-05-10T06:30:01;15.70;68.90
14014;DHT22;49110;52.584;13.408;2023-05-10T06:31:03;15.70;68.40
14014;DHT22;49110;52.584;13.408;2023-05-10T06:32:03;15.70;69.20
14014;DHT22;49110;52.584;13.408;2023-05-10T06:33:04;15.80;69.60
14014;DHT22;49110;52.584;13.408;2023-05-10T06:34:05;15.80;68.80
14014;DHT22;49110;52.584;13.408;2023-05-10T06:35:07;15.80;68.10
14014;DHT22;49110;52.584;13.408;2023-05-10T06:36:08;15.80;68.00
14014;DHT22;49110;52.584;13.408;2023-05-10T06:37:08;15.80;68.40
14014;DHT22;49110;52.584;13.408;2023-05-10T06:38:09;15.90;68.90
14014;DHT22;49110;52.584;13.408;2023-05-10T06:39:09;15.90;68.40
14014;DHT22;49110;52.584;13.408;2023-05-10T06:40:11;15.90;68.20
14014;DHT22;49110;52.584;13.408;2023-05-10T06:41:12;16.00;68.40